Airfield :
LOGIN :

Register | Disclaimer

   EN    FR    IT 

 










Legend :    VFR   Marginal VFR   IFR   Intensive IFR   Very Intensive IFR
Visi :
Ceiling :
>= 8 km
>= 3000ft
5 to 8 km
1000 to 3000 ft
1500m to 5 km
500 to 1000 ft
800 to 1500m
200 to 500 ft
< 800m
< 200 ft
Symbols :   Thunderstorms  Fog  Heavy snow  Heavy precipitations  Wind > 20 kt
SIGMETs :     Misc.  Thunderstorms  Icing  Turbulence  Mountain Waves  Volcanic Ashes






- Airport Elevation : 184 ft
- IATA code : BRU


EBBR - Bruxelles

CURRENT METAR :
  • 262120Z 19010KT 9999 SCT046 07/05 Q1012 TEMPO 4500 RA BKN012

EXPIRED METARs :
  • 262050Z 20012KT CAVOK 08/04 Q1012 NOSIG
  • 262020Z 20012KT CAVOK 07/05 Q1012 NOSIG
  • 261950Z 20011KT CAVOK 07/05 Q1013 NOSIG
  • 261920Z 20010KT CAVOK 07/05 Q1013 NOSIG
  • 261850Z 21012KT 9999 BKN015 08/05 Q1013 NOSIG

TAF TAF EBBR
Valid from the 26 at 18:00 until the 28 at 00:00 UTC


261712Z 2618/2724 19010KT 9999 FEW020
TEMPO 2623/2702 19015G25KT RA SCT008 BKN012
PROB40
TEMPO 2703/2706 4500 SHRA
TEMPO 2720/2724 4500 RA SCT009 BKN014
BECMG 2722/2724 25010KT



MET'MAP, your aeronautical weather chart ! - Copyright ORBIFLY December 2007 - Disclaimer

ORBIFLY MET'MAP TEAM :

Programming & Development : Alexandra Zaïnal
Concept & original design : Baudouin d'Aumeries
Assistance for programming : Marc-Olivier Méhu
Technical & hardware support : Manuel Goepfert

Contact : metmap@orbifly.com




SOURCES & CREDITS :

   NOAA